sensor_id;sensor_type;location;lat;lon;timestamp;P1;durP1;ratioP1;P2;durP2;ratioP2
75195;SDS011;63773;42.282;22.782;2023-05-07T00:01:49;13.10;;;8.43;;
75195;SDS011;63773;42.282;22.782;2023-05-07T00:04:14;11.02;;;6.97;;
75195;SDS011;63773;42.282;22.782;2023-05-07T00:06:40;12.05;;;7.75;;
75195;SDS011;63773;42.282;22.782;2023-05-07T00:09:06;11.50;;;8.15;;
75195;SDS011;63773;42.282;22.782;2023-05-07T00:11:31;13.05;;;7.63;;
75195;SDS011;63773;42.282;22.782;2023-05-07T00:13:57;10.75;;;7.35;;
75195;SDS011;63773;42.282;22.782;2023-05-07T00:16:23;12.05;;;8.02;;
75195;SDS011;63773;42.282;22.782;2023-05-07T00:18:48;10.40;;;7.63;;
75195;SDS011;63773;42.282;22.782;2023-05-07T00:21:13;11.60;;;8.35;;
75195;SDS011;63773;42.282;22.782;2023-05-07T00:23:39;12.23;;;8.10;;
75195;SDS011;63773;42.282;22.782;2023-05-07T00:26:04;10.23;;;6.47;;
75195;SDS011;63773;42.282;22.782;2023-05-07T00:28:30;12.98;;;8.35;;
75195;SDS011;63773;42.282;22.782;2023-05-07T00:30:55;10.35;;;6.72;;
75195;SDS011;63773;42.282;22.782;2023-05-07T00:33:21;12.73;;;8.30;;
75195;SDS011;63773;42.282;22.782;2023-05-07T00:35:47;12.05;;;7.88;;
75195;SDS011;63773;42.282;22.782;2023-05-07T00:38:13;12.27;;;7.00;;
75195;SDS011;63773;42.282;22.782;2023-05-07T00:40:38;11.70;;;7.70;;
75195;SDS011;63773;42.282;22.782;2023-05-07T00:43:03;12.02;;;6.85;;
75195;SDS011;63773;42.282;22.782;2023-05-07T00:45:29;11.65;;;5.93;;
75195;SDS011;63773;42.282;22.782;2023-05-07T00:47:55;9.77;;;6.85;;
75195;SDS011;63773;42.282;22.782;2023-05-07T00:50:22;13.55;;;8.20;;
75195;SDS011;63773;42.282;22.782;2023-05-07T00:52:48;10.00;;;6.78;;
75195;SDS011;63773;42.282;22.782;2023-05-07T00:55:13;15.38;;;7.53;;
75195;SDS011;63773;42.282;22.782;2023-05-07T00:57:40;11.45;;;6.72;;
75195;SDS011;63773;42.282;22.782;2023-05-07T01:00:07;10.02;;;7.07;;
75195;SDS011;63773;42.282;22.782;2023-05-07T01:02:40;10.10;;;6.40;;
75195;SDS011;63773;42.282;22.782;2023-05-07T01:05:07;11.20;;;5.80;;
75195;SDS011;63773;42.282;22.782;2023-05-07T01:07:36;10.80;;;7.07;;
75195;SDS011;63773;42.282;22.782;2023-05-07T01:10:04;10.07;;;6.10;;
75195;SDS011;63773;42.282;22.782;2023-05-07T01:12:30;11.50;;;7.20;;
75195;SDS011;63773;42.282;22.782;2023-05-07T01:14:56;10.23;;;6.93;;
75195;SDS011;63773;42.282;22.782;2023-05-07T01:17:22;11.07;;;7.47;;
75195;SDS011;63773;42.282;22.782;2023-05-07T01:19:48;10.63;;;7.15;;
75195;SDS011;63773;42.282;22.782;2023-05-07T01:22:14;9.93;;;7.65;;
75195;SDS011;63773;42.282;22.782;2023-05-07T01:24:44;11.02;;;6.82;;
75195;SDS011;63773;42.282;22.782;2023-05-07T01:27:10;9.77;;;6.72;;
75195;SDS011;63773;42.282;22.782;2023-05-07T01:29:35;10.05;;;6.57;;
75195;SDS011;63773;42.282;22.782;2023-05-07T01:32:01;11.70;;;8.23;;
75195;SDS011;63773;42.282;22.782;2023-05-07T01:34:28;10.82;;;7.53;;
75195;SDS011;63773;42.282;22.782;2023-05-07T01:36:56;10.02;;;6.90;;
75195;SDS011;63773;42.282;22.782;2023-05-07T01:39:24;10.27;;;6.82;;
75195;SDS011;63773;42.282;22.782;2023-05-07T01:44:18;9.73;;;5.28;;
75195;SDS011;63773;42.282;22.782;2023-05-07T01:46:45;8.82;;;6.75;;
75195;SDS011;63773;42.282;22.782;2023-05-07T01:49:11;9.75;;;6.95;;
75195;SDS011;63773;42.282;22.782;2023-05-07T01:51:36;11.20;;;7.13;;
75195;SDS011;63773;42.282;22.782;2023-05-07T01:54:02;10.32;;;7.18;;
75195;SDS011;63773;42.282;22.782;2023-05-07T01:56:27;9.27;;;5.85;;
75195;SDS011;63773;42.282;22.782;2023-05-07T01:58:53;10.45;;;6.78;;
75195;SDS011;63773;42.282;22.782;2023-05-07T02:01:18;10.98;;;8.10;;
75195;SDS011;63773;42.282;22.782;2023-05-07T02:03:44;10.43;;;7.25;;
75195;SDS011;63773;42.282;22.782;2023-05-07T02:06:09;12.50;;;6.95;;
75195;SDS011;63773;42.282;22.782;2023-05-07T02:08:35;11.23;;;7.68;;
75195;SDS011;63773;42.282;22.782;2023-05-07T02:11:00;12.05;;;7.85;;
75195;SDS011;63773;42.282;22.782;2023-05-07T02:13:32;11.07;;;7.13;;
75195;SDS011;63773;42.282;22.782;2023-05-07T02:16:02;12.75;;;7.63;;
75195;SDS011;63773;42.282;22.782;2023-05-07T02:18:28;13.13;;;9.00;;
75195;SDS011;63773;42.282;22.782;2023-05-07T02:20:53;10.95;;;7.03;;
75195;SDS011;63773;42.282;22.782;2023-05-07T02:23:19;11.27;;;7.43;;
75195;SDS011;63773;42.282;22.782;2023-05-07T02:25:44;12.20;;;8.15;;
75195;SDS011;63773;42.282;22.782;2023-05-07T02:28:10;10.40;;;6.93;;
75195;SDS011;63773;42.282;22.782;2023-05-07T02:30:36;10.82;;;7.68;;
75195;SDS011;63773;42.282;22.782;2023-05-07T02:33:02;10.90;;;7.03;;
75195;SDS011;63773;42.282;22.782;2023-05-07T02:35:28;10.02;;;6.50;;
75195;SDS011;63773;42.282;22.782;2023-05-07T02:37:53;10.93;;;7.22;;
75195;SDS011;63773;42.282;22.782;2023-05-07T02:40:18;12.00;;;7.68;;
75195;SDS011;63773;42.282;22.782;2023-05-07T02:42:44;9.27;;;6.68;;
75195;SDS011;63773;42.282;22.782;2023-05-07T02:45:09;9.60;;;6.38;;
75195;SDS011;63773;42.282;22.782;2023-05-07T02:47:35;11.77;;;7.20;;
75195;SDS011;63773;42.282;22.782;2023-05-07T02:50:01;11.70;;;6.95;;
75195;SDS011;63773;42.282;22.782;2023-05-07T02:52:27;18.83;;;7.55;;
75195;SDS011;63773;42.282;22.782;2023-05-07T02:54:52;12.73;;;6.68;;
75195;SDS011;63773;42.282;22.782;2023-05-07T02:57:17;11.23;;;7.15;;
75195;SDS011;63773;42.282;22.782;2023-05-07T02:59:43;9.55;;;6.90;;
75195;SDS011;63773;42.282;22.782;2023-05-07T03:02:08;11.48;;;7.10;;
75195;SDS011;63773;42.282;22.782;2023-05-07T03:04:34;9.93;;;6.72;;
75195;SDS011;63773;42.282;22.782;2023-05-07T03:07:00;8.73;;;5.63;;
75195;SDS011;63773;42.282;22.782;2023-05-07T03:09:25;11.05;;;6.75;;
75195;SDS011;63773;42.282;22.782;2023-05-07T03:11:51;13.40;;;6.72;;
75195;SDS011;63773;42.282;22.782;2023-05-07T03:14:16;12.70;;;5.95;;
75195;SDS011;63773;42.282;22.782;2023-05-07T03:16:42;28.27;;;11.13;;
75195;SDS011;63773;42.282;22.782;2023-05-07T03:19:07;30.50;;;11.98;;
75195;SDS011;63773;42.282;22.782;2023-05-07T03:21:33;32.33;;;11.05;;
75195;SDS011;63773;42.282;22.782;2023-05-07T03:23:59;24.75;;;8.13;;
75195;SDS011;63773;42.282;22.782;2023-05-07T03:26:25;12.95;;;6.97;;
75195;SDS011;63773;42.282;22.782;2023-05-07T03:28:51;12.35;;;6.47;;
75195;SDS011;63773;42.282;22.782;2023-05-07T03:31:17;10.60;;;6.32;;
75195;SDS011;63773;42.282;22.782;2023-05-07T03:33:49;14.85;;;7.38;;
75195;SDS011;63773;42.282;22.782;2023-05-07T03:36:18;14.05;;;6.38;;
75195;SDS011;63773;42.282;22.782;2023-05-07T03:38:44;27.40;;;10.85;;
75195;SDS011;63773;42.282;22.782;2023-05-07T03:43:45;15.07;;;7.55;;
75195;SDS011;63773;42.282;22.782;2023-05-07T03:46:10;10.52;;;6.20;;
75195;SDS011;63773;42.282;22.782;2023-05-07T03:48:36;8.75;;;5.30;;
75195;SDS011;63773;42.282;22.782;2023-05-07T03:51:01;10.25;;;6.55;;
75195;SDS011;63773;42.282;22.782;2023-05-07T03:53:26;11.05;;;5.00;;
75195;SDS011;63773;42.282;22.782;2023-05-07T03:55:52;10.88;;;6.18;;
75195;SDS011;63773;42.282;22.782;2023-05-07T03:58:17;9.13;;;5.85;;
75195;SDS011;63773;42.282;22.782;2023-05-07T04:00:42;8.55;;;6.53;;
75195;SDS011;63773;42.282;22.782;2023-05-07T04:03:08;10.70;;;6.68;;
75195;SDS011;63773;42.282;22.782;2023-05-07T04:05:34;10.93;;;6.90;;
75195;SDS011;63773;42.282;22.782;2023-05-07T04:07:59;11.90;;;6.95;;
75195;SDS011;63773;42.282;22.782;2023-05-07T04:10:25;12.05;;;6.47;;
75195;SDS011;63773;42.282;22.782;2023-05-07T04:12:51;11.23;;;6.55;;
75195;SDS011;63773;42.282;22.782;2023-05-07T04:15:17;12.25;;;7.65;;
75195;SDS011;63773;42.282;22.782;2023-05-07T04:17:42;10.00;;;7.80;;
75195;SDS011;63773;42.282;22.782;2023-05-07T04:20:13;10.85;;;7.32;;
75195;SDS011;63773;42.282;22.782;2023-05-07T04:22:40;11.88;;;7.88;;
75195;SDS011;63773;42.282;22.782;2023-05-07T04:25:06;11.32;;;7.90;;
75195;SDS011;63773;42.282;22.782;2023-05-07T04:27:34;12.20;;;7.32;;
75195;SDS011;63773;42.282;22.782;2023-05-07T04:29:59;12.85;;;7.78;;
75195;SDS011;63773;42.282;22.782;2023-05-07T04:32:25;13.93;;;8.75;;
75195;SDS011;63773;42.282;22.782;2023-05-07T04:34:51;14.23;;;8.65;;
75195;SDS011;63773;42.282;22.782;2023-05-07T04:37:16;12.48;;;9.55;;
75195;SDS011;63773;42.282;22.782;2023-05-07T04:39:42;12.50;;;8.02;;
75195;SDS011;63773;42.282;22.782;2023-05-07T04:42:07;12.55;;;7.90;;
75195;SDS011;63773;42.282;22.782;2023-05-07T04:44:34;12.70;;;8.07;;
75195;SDS011;63773;42.282;22.782;2023-05-07T04:47:01;13.30;;;8.50;;
75195;SDS011;63773;42.282;22.782;2023-05-07T04:49:27;11.13;;;8.13;;
75195;SDS011;63773;42.282;22.782;2023-05-07T04:51:52;12.60;;;8.70;;
75195;SDS011;63773;42.282;22.782;2023-05-07T04:54:18;11.43;;;7.10;;
75195;SDS011;63773;42.282;22.782;2023-05-07T04:56:43;14.25;;;7.63;;
75195;SDS011;63773;42.282;22.782;2023-05-07T04:59:09;10.32;;;7.28;;
75195;SDS011;63773;42.282;22.782;2023-05-07T05:01:34;11.40;;;8.65;;
75195;SDS011;63773;42.282;22.782;2023-05-07T05:03:59;11.25;;;8.40;;
75195;SDS011;63773;42.282;22.782;2023-05-07T05:06:25;10.95;;;7.38;;
75195;SDS011;63773;42.282;22.782;2023-05-07T05:08:51;15.30;;;8.88;;
75195;SDS011;63773;42.282;22.782;2023-05-07T05:11:16;19.77;;;11.05;;
75195;SDS011;63773;42.282;22.782;2023-05-07T05:13:41;21.08;;;12.93;;
75195;SDS011;63773;42.282;22.782;2023-05-07T05:16:07;18.38;;;11.02;;
75195;SDS011;63773;42.282;22.782;2023-05-07T05:18:32;13.73;;;9.25;;
75195;SDS011;63773;42.282;22.782;2023-05-07T05:20:58;14.45;;;8.10;;
75195;SDS011;63773;42.282;22.782;2023-05-07T05:23:23;10.98;;;6.63;;
75195;SDS011;63773;42.282;22.782;2023-05-07T05:25:49;9.85;;;6.53;;
75195;SDS011;63773;42.282;22.782;2023-05-07T05:28:14;8.55;;;6.38;;
75195;SDS011;63773;42.282;22.782;2023-05-07T05:30:40;14.15;;;6.95;;
75195;SDS011;63773;42.282;22.782;2023-05-07T05:33:05;7.97;;;5.70;;
75195;SDS011;63773;42.282;22.782;2023-05-07T05:35:31;9.15;;;6.07;;
75195;SDS011;63773;42.282;22.782;2023-05-07T05:37:56;9.77;;;6.10;;
75195;SDS011;63773;42.282;22.782;2023-05-07T05:40:22;9.10;;;5.43;;
75195;SDS011;63773;42.282;22.782;2023-05-07T05:42:47;10.30;;;6.03;;
75195;SDS011;63773;42.282;22.782;2023-05-07T05:45:13;8.10;;;6.10;;
75195;SDS011;63773;42.282;22.782;2023-05-07T05:53:19;16.50;;;8.48;;
75195;SDS011;63773;42.282;22.782;2023-05-07T05:55:44;16.85;;;9.02;;
75195;SDS011;63773;42.282;22.782;2023-05-07T05:58:10;12.35;;;5.57;;
75195;SDS011;63773;42.282;22.782;2023-05-07T06:00:35;7.32;;;5.35;;
75195;SDS011;63773;42.282;22.782;2023-05-07T06:03:01;9.40;;;5.80;;
75195;SDS011;63773;42.282;22.782;2023-05-07T06:05:26;9.52;;;5.50;;
75195;SDS011;63773;42.282;22.782;2023-05-07T06:07:52;6.65;;;4.97;;
75195;SDS011;63773;42.282;22.782;2023-05-07T06:10:17;6.68;;;5.57;;
75195;SDS011;63773;42.282;22.782;2023-05-07T06:12:43;8.35;;;5.30;;
75195;SDS011;63773;42.282;22.782;2023-05-07T06:15:09;7.60;;;5.38;;
75195;SDS011;63773;42.282;22.782;2023-05-07T06:17:35;8.13;;;5.22;;
75195;SDS011;63773;42.282;22.782;2023-05-07T06:20:00;9.63;;;6.22;;
75195;SDS011;63773;42.282;22.782;2023-05-07T06:22:26;7.05;;;4.28;;
75195;SDS011;63773;42.282;22.782;2023-05-07T06:24:51;7.85;;;5.60;;
75195;SDS011;63773;42.282;22.782;2023-05-07T06:27:16;6.35;;;5.05;;
75195;SDS011;63773;42.282;22.782;2023-05-07T06:29:42;7.78;;;4.60;;
75195;SDS011;63773;42.282;22.782;2023-05-07T06:32:11;6.32;;;5.25;;
75195;SDS011;63773;42.282;22.782;2023-05-07T06:34:38;7.13;;;4.28;;
75195;SDS011;63773;42.282;22.782;2023-05-07T06:37:05;7.25;;;4.93;;
75195;SDS011;63773;42.282;22.782;2023-05-07T06:39:31;5.53;;;4.20;;
75195;SDS011;63773;42.282;22.782;2023-05-07T06:41:57;8.60;;;4.80;;
75195;SDS011;63773;42.282;22.782;2023-05-07T06:44:22;6.50;;;4.32;;
75195;SDS011;63773;42.282;22.782;2023-05-07T06:46:48;7.63;;;4.57;;
75195;SDS011;63773;42.282;22.782;2023-05-07T06:49:13;6.22;;;4.57;;
75195;SDS011;63773;42.282;22.782;2023-05-07T06:51:39;8.45;;;4.55;;
75195;SDS011;63773;42.282;22.782;2023-05-07T06:54:05;7.53;;;4.82;;
75195;SDS011;63773;42.282;22.782;2023-05-07T06:56:30;8.38;;;5.20;;
75195;SDS011;63773;42.282;22.782;2023-05-07T06:58:56;8.27;;;4.63;;
75195;SDS011;63773;42.282;22.782;2023-05-07T07:01:22;6.07;;;4.18;;
75195;SDS011;63773;42.282;22.782;2023-05-07T07:03:47;6.55;;;4.72;;
75195;SDS011;63773;42.282;22.782;2023-05-07T07:06:13;6.50;;;4.38;;
75195;SDS011;63773;42.282;22.782;2023-05-07T07:08:39;7.65;;;5.03;;
75195;SDS011;63773;42.282;22.782;2023-05-07T07:11:05;6.57;;;4.07;;
75195;SDS011;63773;42.282;22.782;2023-05-07T07:13:31;6.40;;;4.07;;
75195;SDS011;63773;42.282;22.782;2023-05-07T07:15:56;5.95;;;3.92;;
75195;SDS011;63773;42.282;22.782;2023-05-07T07:18:22;6.63;;;4.43;;
75195;SDS011;63773;42.282;22.782;2023-05-07T07:20:47;5.82;;;4.55;;
75195;SDS011;63773;42.282;22.782;2023-05-07T07:23:12;7.10;;;4.28;;
75195;SDS011;63773;42.282;22.782;2023-05-07T07:25:38;8.02;;;4.35;;
75195;SDS011;63773;42.282;22.782;2023-05-07T07:28:03;7.10;;;4.88;;
75195;SDS011;63773;42.282;22.782;2023-05-07T07:30:29;5.65;;;4.28;;
75195;SDS011;63773;42.282;22.782;2023-05-07T07:32:54;6.32;;;4.45;;
75195;SDS011;63773;42.282;22.782;2023-05-07T07:35:22;7.43;;;4.97;;
75195;SDS011;63773;42.282;22.782;2023-05-07T07:37:48;6.70;;;4.40;;
75195;SDS011;63773;42.282;22.782;2023-05-07T07:40:15;5.38;;;3.88;;
75195;SDS011;63773;42.282;22.782;2023-05-07T07:42:40;6.95;;;4.07;;
75195;SDS011;63773;42.282;22.782;2023-05-07T07:45:06;5.45;;;4.15;;
75195;SDS011;63773;42.282;22.782;2023-05-07T07:47:32;5.90;;;4.43;;
75195;SDS011;63773;42.282;22.782;2023-05-07T07:49:57;5.95;;;3.95;;
75195;SDS011;63773;42.282;22.782;2023-05-07T07:52:23;6.38;;;4.63;;
75195;SDS011;63773;42.282;22.782;2023-05-07T07:54:48;7.15;;;4.35;;
75195;SDS011;63773;42.282;22.782;2023-05-07T07:57:13;9.55;;;5.45;;
75195;SDS011;63773;42.282;22.782;2023-05-07T07:59:39;6.97;;;4.47;;
75195;SDS011;63773;42.282;22.782;2023-05-07T08:02:05;5.43;;;4.05;;
75195;SDS011;63773;42.282;22.782;2023-05-07T08:04:30;7.47;;;4.70;;
75195;SDS011;63773;42.282;22.782;2023-05-07T08:06:58;6.78;;;4.97;;
75195;SDS011;63773;42.282;22.782;2023-05-07T08:09:23;7.25;;;4.03;;
75195;SDS011;63773;42.282;22.782;2023-05-07T08:11:48;6.70;;;3.97;;
75195;SDS011;63773;42.282;22.782;2023-05-07T08:14:14;6.22;;;4.35;;
75195;SDS011;63773;42.282;22.782;2023-05-07T08:16:40;8.88;;;4.60;;
75195;SDS011;63773;42.282;22.782;2023-05-07T08:19:06;8.30;;;3.92;;
75195;SDS011;63773;42.282;22.782;2023-05-07T08:21:31;9.68;;;5.18;;
75195;SDS011;63773;42.282;22.782;2023-05-07T08:23:57;7.57;;;5.15;;
75195;SDS011;63773;42.282;22.782;2023-05-07T08:26:22;5.28;;;4.35;;
75195;SDS011;63773;42.282;22.782;2023-05-07T08:28:48;6.43;;;4.15;;
75195;SDS011;63773;42.282;22.782;2023-05-07T08:31:13;8.32;;;4.25;;
75195;SDS011;63773;42.282;22.782;2023-05-07T08:33:38;6.13;;;4.57;;
75195;SDS011;63773;42.282;22.782;2023-05-07T08:36:04;6.20;;;4.10;;
75195;SDS011;63773;42.282;22.782;2023-05-07T08:38:30;7.03;;;5.53;;
75195;SDS011;63773;42.282;22.782;2023-05-07T08:40:56;7.25;;;4.47;;
75195;SDS011;63773;42.282;22.782;2023-05-07T08:43:21;5.78;;;4.53;;
75195;SDS011;63773;42.282;22.782;2023-05-07T08:45:52;4.85;;;4.35;;
75195;SDS011;63773;42.282;22.782;2023-05-07T08:48:20;7.10;;;4.97;;
75195;SDS011;63773;42.282;22.782;2023-05-07T08:50:50;6.15;;;5.03;;
75195;SDS011;63773;42.282;22.782;2023-05-07T08:53:16;5.38;;;4.85;;
75195;SDS011;63773;42.282;22.782;2023-05-07T08:55:41;8.25;;;4.55;;
75195;SDS011;63773;42.282;22.782;2023-05-07T08:58:07;6.53;;;4.35;;
75195;SDS011;63773;42.282;22.782;2023-05-07T09:00:32;7.03;;;3.85;;
75195;SDS011;63773;42.282;22.782;2023-05-07T09:02:58;5.43;;;4.65;;
75195;SDS011;63773;42.282;22.782;2023-05-07T09:05:25;7.68;;;4.55;;
75195;SDS011;63773;42.282;22.782;2023-05-07T09:07:50;5.70;;;5.03;;
75195;SDS011;63773;42.282;22.782;2023-05-07T09:10:16;6.32;;;4.20;;
75195;SDS011;63773;42.282;22.782;2023-05-07T09:12:41;7.13;;;4.40;;
75195;SDS011;63773;42.282;22.782;2023-05-07T09:15:07;10.93;;;4.72;;
75195;SDS011;63773;42.282;22.782;2023-05-07T09:17:32;4.40;;;3.97;;
75195;SDS011;63773;42.282;22.782;2023-05-07T09:20:04;5.55;;;4.68;;
75195;SDS011;63773;42.282;22.782;2023-05-07T09:22:34;6.93;;;4.68;;
75195;SDS011;63773;42.282;22.782;2023-05-07T09:25:01;9.43;;;5.72;;
75195;SDS011;63773;42.282;22.782;2023-05-07T09:27:27;6.70;;;4.97;;
75195;SDS011;63773;42.282;22.782;2023-05-07T09:29:52;6.78;;;4.57;;
75195;SDS011;63773;42.282;22.782;2023-05-07T09:32:18;5.82;;;4.97;;
75195;SDS011;63773;42.282;22.782;2023-05-07T09:34:43;6.45;;;3.58;;
75195;SDS011;63773;42.282;22.782;2023-05-07T09:37:10;5.30;;;3.17;;
75195;SDS011;63773;42.282;22.782;2023-05-07T09:39:38;5.32;;;4.20;;
75195;SDS011;63773;42.282;22.782;2023-05-07T09:42:05;5.32;;;4.50;;
75195;SDS011;63773;42.282;22.782;2023-05-07T09:44:31;4.95;;;4.40;;
75195;SDS011;63773;42.282;22.782;2023-05-07T09:46:57;6.15;;;4.43;;
75195;SDS011;63773;42.282;22.782;2023-05-07T09:49:25;5.30;;;4.28;;
75195;SDS011;63773;42.282;22.782;2023-05-07T09:51:57;4.75;;;3.83;;
75195;SDS011;63773;42.282;22.782;2023-05-07T09:54:26;4.90;;;4.10;;
75195;SDS011;63773;42.282;22.782;2023-05-07T09:56:53;4.93;;;4.05;;
75195;SDS011;63773;42.282;22.782;2023-05-07T09:59:20;5.68;;;5.13;;
75195;SDS011;63773;42.282;22.782;2023-05-07T10:01:47;4.93;;;4.03;;
75195;SDS011;63773;42.282;22.782;2023-05-07T10:04:14;4.85;;;4.07;;
75195;SDS011;63773;42.282;22.782;2023-05-07T10:06:39;5.65;;;3.63;;
75195;SDS011;63773;42.282;22.782;2023-05-07T10:09:06;4.55;;;4.15;;
75195;SDS011;63773;42.282;22.782;2023-05-07T10:11:34;5.63;;;3.58;;
75195;SDS011;63773;42.282;22.782;2023-05-07T10:14:00;5.90;;;5.30;;
75195;SDS011;63773;42.282;22.782;2023-05-07T10:16:28;5.63;;;4.45;;
75195;SDS011;63773;42.282;22.782;2023-05-07T10:18:58;5.00;;;4.03;;
75195;SDS011;63773;42.282;22.782;2023-05-07T10:21:24;5.13;;;4.53;;
75195;SDS011;63773;42.282;22.782;2023-05-07T10:23:58;5.50;;;4.35;;
75195;SDS011;63773;42.282;22.782;2023-05-07T10:26:30;5.60;;;4.32;;
75195;SDS011;63773;42.282;22.782;2023-05-07T10:29:03;6.60;;;4.00;;
75195;SDS011;63773;42.282;22.782;2023-05-07T10:34:10;4.18;;;3.78;;
75195;SDS011;63773;42.282;22.782;2023-05-07T10:36:38;7.13;;;3.95;;
75195;SDS011;63773;42.282;22.782;2023-05-07T10:39:04;4.82;;;4.13;;
75195;SDS011;63773;42.282;22.782;2023-05-07T10:41:31;4.68;;;4.05;;
75195;SDS011;63773;42.282;22.782;2023-05-07T10:43:57;4.90;;;4.13;;
75195;SDS011;63773;42.282;22.782;2023-05-07T10:46:26;6.22;;;4.43;;
75195;SDS011;63773;42.282;22.782;2023-05-07T10:56:35;4.82;;;4.15;;
75195;SDS011;63773;42.282;22.782;2023-05-07T11:04:18;9.85;;;9.05;;
75195;SDS011;63773;42.282;22.782;2023-05-07T11:07:31;5.30;;;4.45;;
75195;SDS011;63773;42.282;22.782;2023-05-07T11:17:31;5.10;;;3.83;;
75195;SDS011;63773;42.282;22.782;2023-05-07T11:19:59;4.25;;;3.78;;
75195;SDS011;63773;42.282;22.782;2023-05-07T11:25:02;5.75;;;4.32;;
75195;SDS011;63773;42.282;22.782;2023-05-07T11:27:28;5.25;;;4.22;;
75195;SDS011;63773;42.282;22.782;2023-05-07T11:29:55;5.53;;;5.03;;
75195;SDS011;63773;42.282;22.782;2023-05-07T11:32:27;6.05;;;4.10;;
75195;SDS011;63773;42.282;22.782;2023-05-07T11:34:54;5.50;;;4.50;;
75195;SDS011;63773;42.282;22.782;2023-05-07T11:37:21;4.82;;;4.40;;
75195;SDS011;63773;42.282;22.782;2023-05-07T11:39:48;4.55;;;4.15;;
75195;SDS011;63773;42.282;22.782;2023-05-07T11:42:31;4.65;;;4.25;;
75195;SDS011;63773;42.282;22.782;2023-05-07T11:44:58;4.97;;;4.47;;
75195;SDS011;63773;42.282;22.782;2023-05-07T11:47:24;5.10;;;3.88;;
75195;SDS011;63773;42.282;22.782;2023-05-07T11:52:17;4.45;;;3.67;;
75195;SDS011;63773;42.282;22.782;2023-05-07T11:54:53;4.70;;;3.90;;
75195;SDS011;63773;42.282;22.782;2023-05-07T11:57:20;4.60;;;4.10;;
75195;SDS011;63773;42.282;22.782;2023-05-07T11:59:47;4.60;;;4.03;;
75195;SDS011;63773;42.282;22.782;2023-05-07T12:02:13;5.10;;;4.50;;
75195;SDS011;63773;42.282;22.782;2023-05-07T12:04:40;5.40;;;4.90;;
75195;SDS011;63773;42.282;22.782;2023-05-07T12:07:10;5.78;;;4.55;;
75195;SDS011;63773;42.282;22.782;2023-05-07T12:09:37;5.97;;;4.30;;
75195;SDS011;63773;42.282;22.782;2023-05-07T12:12:03;4.72;;;4.22;;
75195;SDS011;63773;42.282;22.782;2023-05-07T12:14:29;5.63;;;4.68;;
75195;SDS011;63773;42.282;22.782;2023-05-07T12:16:55;4.88;;;4.40;;
75195;SDS011;63773;42.282;22.782;2023-05-07T12:19:21;6.57;;;4.07;;
75195;SDS011;63773;42.282;22.782;2023-05-07T12:21:47;4.70;;;3.95;;
75195;SDS011;63773;42.282;22.782;2023-05-07T12:24:14;4.05;;;3.70;;
75195;SDS011;63773;42.282;22.782;2023-05-07T12:29:05;5.75;;;4.22;;
75195;SDS011;63773;42.282;22.782;2023-05-07T12:31:31;4.97;;;4.55;;
75195;SDS011;63773;42.282;22.782;2023-05-07T12:33:56;5.43;;;4.47;;
75195;SDS011;63773;42.282;22.782;2023-05-07T12:36:22;5.07;;;4.03;;
75195;SDS011;63773;42.282;22.782;2023-05-07T12:38:49;7.93;;;4.35;;
75195;SDS011;63773;42.282;22.782;2023-05-07T12:41:15;4.68;;;4.28;;
75195;SDS011;63773;42.282;22.782;2023-05-07T12:43:41;12.05;;;5.45;;
75195;SDS011;63773;42.282;22.782;2023-05-07T12:46:09;4.32;;;3.92;;
75195;SDS011;63773;42.282;22.782;2023-05-07T12:48:38;4.50;;;4.10;;
75195;SDS011;63773;42.282;22.782;2023-05-07T12:51:08;3.95;;;3.45;;
75195;SDS011;63773;42.282;22.782;2023-05-07T12:53:39;4.95;;;4.45;;
75195;SDS011;63773;42.282;22.782;2023-05-07T12:56:06;4.68;;;3.65;;
75195;SDS011;63773;42.282;22.782;2023-05-07T12:58:33;4.82;;;4.15;;
75195;SDS011;63773;42.282;22.782;2023-05-07T13:01:00;3.83;;;3.42;;
75195;SDS011;63773;42.282;22.782;2023-05-07T13:03:38;4.18;;;3.78;;
75195;SDS011;63773;42.282;22.782;2023-05-07T13:06:07;4.50;;;4.10;;
75195;SDS011;63773;42.282;22.782;2023-05-07T13:08:40;7.65;;;3.75;;
75195;SDS011;63773;42.282;22.782;2023-05-07T13:11:08;5.80;;;4.63;;
75195;SDS011;63773;42.282;22.782;2023-05-07T13:13:35;4.82;;;4.32;;
75195;SDS011;63773;42.282;22.782;2023-05-07T13:16:02;5.05;;;4.55;;
75195;SDS011;63773;42.282;22.782;2023-05-07T13:18:31;4.28;;;3.88;;
75195;SDS011;63773;42.282;22.782;2023-05-07T13:20:58;7.55;;;4.38;;
75195;SDS011;63773;42.282;22.782;2023-05-07T13:23:25;4.80;;;4.28;;
75195;SDS011;63773;42.282;22.782;2023-05-07T13:25:51;4.55;;;4.15;;
75195;SDS011;63773;42.282;22.782;2023-05-07T13:28:18;4.63;;;4.07;;
75195;SDS011;63773;42.282;22.782;2023-05-07T13:30:45;5.80;;;4.90;;
75195;SDS011;63773;42.282;22.782;2023-05-07T13:33:11;5.13;;;4.00;;
75195;SDS011;63773;42.282;22.782;2023-05-07T13:35:36;5.20;;;4.55;;
75195;SDS011;63773;42.282;22.782;2023-05-07T13:38:02;4.63;;;3.40;;
75195;SDS011;63773;42.282;22.782;2023-05-07T13:40:28;5.90;;;4.28;;
75195;SDS011;63773;42.282;22.782;2023-05-07T13:42:53;5.75;;;4.30;;
75195;SDS011;63773;42.282;22.782;2023-05-07T13:45:18;4.35;;;3.95;;
75195;SDS011;63773;42.282;22.782;2023-05-07T13:47:45;7.47;;;4.55;;
75195;SDS011;63773;42.282;22.782;2023-05-07T13:50:11;6.13;;;3.67;;
75195;SDS011;63773;42.282;22.782;2023-05-07T13:52:39;4.82;;;4.25;;
75195;SDS011;63773;42.282;22.782;2023-05-07T13:55:06;5.57;;;3.97;;
75195;SDS011;63773;42.282;22.782;2023-05-07T13:57:32;4.82;;;4.43;;
75195;SDS011;63773;42.282;22.782;2023-05-07T13:59:57;5.43;;;3.80;;
75195;SDS011;63773;42.282;22.782;2023-05-07T14:02:23;4.68;;;4.28;;
75195;SDS011;63773;42.282;22.782;2023-05-07T14:04:48;5.50;;;4.43;;
75195;SDS011;63773;42.282;22.782;2023-05-07T14:07:13;5.03;;;4.53;;
75195;SDS011;63773;42.282;22.782;2023-05-07T14:09:39;5.75;;;4.88;;
75195;SDS011;63773;42.282;22.782;2023-05-07T14:12:05;5.13;;;4.45;;
75195;SDS011;63773;42.282;22.782;2023-05-07T14:14:31;4.43;;;4.00;;
75195;SDS011;63773;42.282;22.782;2023-05-07T14:16:56;4.22;;;3.45;;
75195;SDS011;63773;42.282;22.782;2023-05-07T14:19:22;5.88;;;4.82;;
75195;SDS011;63773;42.282;22.782;2023-05-07T14:21:48;9.50;;;5.10;;
75195;SDS011;63773;42.282;22.782;2023-05-07T14:24:13;6.15;;;5.43;;
75195;SDS011;63773;42.282;22.782;2023-05-07T14:26:39;6.20;;;4.65;;
75195;SDS011;63773;42.282;22.782;2023-05-07T14:29:04;5.15;;;4.50;;
75195;SDS011;63773;42.282;22.782;2023-05-07T14:31:30;5.70;;;4.10;;
75195;SDS011;63773;42.282;22.782;2023-05-07T14:33:56;4.70;;;3.92;;
75195;SDS011;63773;42.282;22.782;2023-05-07T14:36:23;5.05;;;4.18;;
75195;SDS011;63773;42.282;22.782;2023-05-07T14:38:51;9.07;;;4.38;;
75195;SDS011;63773;42.282;22.782;2023-05-07T14:41:16;4.65;;;3.88;;
75195;SDS011;63773;42.282;22.782;2023-05-07T14:43:42;6.25;;;4.80;;
75195;SDS011;63773;42.282;22.782;2023-05-07T14:46:07;5.60;;;4.38;;
75195;SDS011;63773;42.282;22.782;2023-05-07T14:48:32;5.78;;;3.75;;
75195;SDS011;63773;42.282;22.782;2023-05-07T14:50:58;5.85;;;4.40;;
75195;SDS011;63773;42.282;22.782;2023-05-07T14:53:23;4.80;;;4.30;;
75195;SDS011;63773;42.282;22.782;2023-05-07T14:55:48;4.20;;;3.80;;
75195;SDS011;63773;42.282;22.782;2023-05-07T14:58:14;5.15;;;3.53;;
75195;SDS011;63773;42.282;22.782;2023-05-07T15:00:40;4.20;;;3.80;;
75195;SDS011;63773;42.282;22.782;2023-05-07T15:03:09;8.27;;;7.47;;
75195;SDS011;63773;42.282;22.782;2023-05-07T15:05:35;5.57;;;5.07;;
75195;SDS011;63773;42.282;22.782;2023-05-07T15:08:01;5.53;;;4.50;;